sensor_id;sensor_type;location;lat;lon;timestamp;temperature;humidity
67131;HTU21D;54051;53.464;49.532;2022-10-23T00:01:33;4.20;60.31
67131;HTU21D;54051;53.464;49.532;2022-10-23T00:04:19;4.31;60.58
67131;HTU21D;54051;53.464;49.532;2022-10-23T00:06:46;4.28;61.21
67131;HTU21D;54051;53.464;49.532;2022-10-23T00:09:15;4.29;60.22
67131;HTU21D;54051;53.464;49.532;2022-10-23T00:11:43;4.35;60.39
67131;HTU21D;54051;53.464;49.532;2022-10-23T00:14:12;4.35;59.64
67131;HTU21D;54051;53.464;49.532;2022-10-23T00:16:38;4.33;61.15
67131;HTU21D;54051;53.464;49.532;2022-10-23T00:19:04;4.32;60.38
67131;HTU21D;54051;53.464;49.532;2022-10-23T00:21:30;4.29;62.11
67131;HTU21D;54051;53.464;49.532;2022-10-23T00:23:57;4.27;60.68
67131;HTU21D;54051;53.464;49.532;2022-10-23T00:26:23;4.19;62.41
67131;HTU21D;54051;53.464;49.532;2022-10-23T00:28:51;4.19;60.99
67131;HTU21D;54051;53.464;49.532;2022-10-23T00:31:18;4.16;61.12
67131;HTU21D;54051;53.464;49.532;2022-10-23T00:33:45;4.14;60.96
67131;HTU21D;54051;53.464;49.532;2022-10-23T00:36:13;4.10;61.11
67131;HTU21D;54051;53.464;49.532;2022-10-23T00:38:40;4.12;61.20
67131;HTU21D;54051;53.464;49.532;2022-10-23T00:41:08;4.06;61.18
67131;HTU21D;54051;53.464;49.532;2022-10-23T00:43:52;4.05;61.47
67131;HTU21D;54051;53.464;49.532;2022-10-23T00:46:19;4.07;62.36
67131;HTU21D;54051;53.464;49.532;2022-10-23T00:48:45;4.05;61.77
67131;HTU21D;54051;53.464;49.532;2022-10-23T00:51:11;4.07;61.94
67131;HTU21D;54051;53.464;49.532;2022-10-23T00:53:37;4.03;62.24
67131;HTU21D;54051;53.464;49.532;2022-10-23T00:56:03;3.98;62.24
67131;HTU21D;54051;53.464;49.532;2022-10-23T00:58:30;3.94;63.28
67131;HTU21D;54051;53.464;49.532;2022-10-23T01:00:56;3.99;63.17
67131;HTU21D;54051;53.464;49.532;2022-10-23T01:03:24;3.97;62.79
67131;HTU21D;54051;53.464;49.532;2022-10-23T01:06:36;4.01;64.71
67131;HTU21D;54051;53.464;49.532;2022-10-23T01:11:46;3.94;63.07
67131;HTU21D;54051;53.464;49.532;2022-10-23T01:17:32;3.86;64.05
67131;HTU21D;54051;53.464;49.532;2022-10-23T01:20:18;3.85;65.14
67131;HTU21D;54051;53.464;49.532;2022-10-23T01:25:45;3.89;64.53
67131;HTU21D;54051;53.464;49.532;2022-10-23T01:28:25;3.90;65.39
67131;HTU21D;54051;53.464;49.532;2022-10-23T01:30:53;3.86;64.46
67131;HTU21D;54051;53.464;49.532;2022-10-23T01:33:28;3.84;64.92
67131;HTU21D;54051;53.464;49.532;2022-10-23T01:36:03;3.86;65.32
67131;HTU21D;54051;53.464;49.532;2022-10-23T01:38:41;3.87;64.81
67131;HTU21D;54051;53.464;49.532;2022-10-23T01:41:10;3.90;66.40
67131;HTU21D;54051;53.464;49.532;2022-10-23T01:43:51;3.88;66.82
67131;HTU21D;54051;53.464;49.532;2022-10-23T01:46:20;3.93;66.70
67131;HTU21D;54051;53.464;49.532;2022-10-23T01:48:50;3.91;65.35
67131;HTU21D;54051;53.464;49.532;2022-10-23T01:51:18;3.89;66.53
67131;HTU21D;54051;53.464;49.532;2022-10-23T01:53:46;3.88;66.36
67131;HTU21D;54051;53.464;49.532;2022-10-23T01:56:18;3.86;66.05
67131;HTU21D;54051;53.464;49.532;2022-10-23T01:58:47;3.85;65.88
67131;HTU21D;54051;53.464;49.532;2022-10-23T02:01:16;3.85;66.90
67131;HTU21D;54051;53.464;49.532;2022-10-23T02:03:43;3.83;65.95
67131;HTU21D;54051;53.464;49.532;2022-10-23T02:06:10;3.84;66.83
67131;HTU21D;54051;53.464;49.532;2022-10-23T02:08:36;3.87;66.60
67131;HTU21D;54051;53.464;49.532;2022-10-23T02:11:13;3.78;67.80
67131;HTU21D;54051;53.464;49.532;2022-10-23T02:13:58;3.68;66.60
67131;HTU21D;54051;53.464;49.532;2022-10-23T02:19:38;3.68;66.85
67131;HTU21D;54051;53.464;49.532;2022-10-23T02:22:29;3.65;67.27
67131;HTU21D;54051;53.464;49.532;2022-10-23T02:24:58;3.63;68.05
67131;HTU21D;54051;53.464;49.532;2022-10-23T02:27:34;3.67;67.52
67131;HTU21D;54051;53.464;49.532;2022-10-23T02:30:04;3.70;66.75
67131;HTU21D;54051;53.464;49.532;2022-10-23T02:32:31;3.72;67.36
67131;HTU21D;54051;53.464;49.532;2022-10-23T02:34:58;3.72;68.61
67131;HTU21D;54051;53.464;49.532;2022-10-23T02:37:24;3.75;68.81
67131;HTU21D;54051;53.464;49.532;2022-10-23T02:39:51;3.78;67.91
67131;HTU21D;54051;53.464;49.532;2022-10-23T02:42:22;3.76;68.13
67131;HTU21D;54051;53.464;49.532;2022-10-23T02:47:59;3.69;69.17
67131;HTU21D;54051;53.464;49.532;2022-10-23T02:53:15;3.74;69.61
67131;HTU21D;54051;53.464;49.532;2022-10-23T02:56:00;3.76;69.57
67131;HTU21D;54051;53.464;49.532;2022-10-23T03:01:07;3.73;68.96
67131;HTU21D;54051;53.464;49.532;2022-10-23T03:03:38;3.69;69.24
67131;HTU21D;54051;53.464;49.532;2022-10-23T03:06:05;3.70;69.99
67131;HTU21D;54051;53.464;49.532;2022-10-23T03:09:01;3.69;69.04
67131;HTU21D;54051;53.464;49.532;2022-10-23T03:11:27;3.63;69.91
67131;HTU21D;54051;53.464;49.532;2022-10-23T03:13:53;3.62;69.89
67131;HTU21D;54051;53.464;49.532;2022-10-23T03:16:19;3.61;69.19
67131;HTU21D;54051;53.464;49.532;2022-10-23T03:18:45;3.62;69.50
67131;HTU21D;54051;53.464;49.532;2022-10-23T03:21:11;3.63;69.30
67131;HTU21D;54051;53.464;49.532;2022-10-23T03:23:37;3.62;69.42
67131;HTU21D;54051;53.464;49.532;2022-10-23T03:26:03;3.64;70.64
67131;HTU21D;54051;53.464;49.532;2022-10-23T03:28:29;3.68;70.44
67131;HTU21D;54051;53.464;49.532;2022-10-23T03:30:55;3.67;70.19
67131;HTU21D;54051;53.464;49.532;2022-10-23T03:33:21;3.70;70.69
67131;HTU21D;54051;53.464;49.532;2022-10-23T03:35:48;3.72;71.58
67131;HTU21D;54051;53.464;49.532;2022-10-23T03:38:14;3.67;69.56
67131;HTU21D;54051;53.464;49.532;2022-10-23T03:40:41;3.61;69.44
67131;HTU21D;54051;53.464;49.532;2022-10-23T03:43:07;3.54;70.37
67131;HTU21D;54051;53.464;49.532;2022-10-23T03:45:33;3.58;69.84
67131;HTU21D;54051;53.464;49.532;2022-10-23T03:48:01;3.64;71.42
67131;HTU21D;54051;53.464;49.532;2022-10-23T03:50:27;3.72;70.11
67131;HTU21D;54051;53.464;49.532;2022-10-23T03:52:53;3.69;71.54
67131;HTU21D;54051;53.464;49.532;2022-10-23T03:55:19;3.70;70.44
67131;HTU21D;54051;53.464;49.532;2022-10-23T03:57:45;3.72;69.97
67131;HTU21D;54051;53.464;49.532;2022-10-23T04:00:11;3.69;70.46
67131;HTU21D;54051;53.464;49.532;2022-10-23T04:02:37;3.71;70.76
67131;HTU21D;54051;53.464;49.532;2022-10-23T04:05:04;3.78;70.81
67131;HTU21D;54051;53.464;49.532;2022-10-23T04:07:30;3.74;70.29
67131;HTU21D;54051;53.464;49.532;2022-10-23T04:09:56;3.77;69.95
67131;HTU21D;54051;53.464;49.532;2022-10-23T04:12:22;3.77;72.29
67131;HTU21D;54051;53.464;49.532;2022-10-23T04:14:48;3.85;70.10
67131;HTU21D;54051;53.464;49.532;2022-10-23T04:17:14;3.85;69.88
67131;HTU21D;54051;53.464;49.532;2022-10-23T04:19:40;3.86;70.39
67131;HTU21D;54051;53.464;49.532;2022-10-23T04:22:06;3.85;69.58
67131;HTU21D;54051;53.464;49.532;2022-10-23T04:24:32;3.85;70.05
67131;HTU21D;54051;53.464;49.532;2022-10-23T04:26:58;3.91;69.47
67131;HTU21D;54051;53.464;49.532;2022-10-23T04:29:24;3.95;69.55
67131;HTU21D;54051;53.464;49.532;2022-10-23T04:31:50;4.09;69.36
67131;HTU21D;54051;53.464;49.532;2022-10-23T04:34:20;4.21;68.38
67131;HTU21D;54051;53.464;49.532;2022-10-23T04:36:46;4.23;68.47
67131;HTU21D;54051;53.464;49.532;2022-10-23T04:39:12;4.28;68.65
67131;HTU21D;54051;53.464;49.532;2022-10-23T04:41:39;4.37;68.42
67131;HTU21D;54051;53.464;49.532;2022-10-23T04:44:05;4.37;67.85
67131;HTU21D;54051;53.464;49.532;2022-10-23T04:46:31;4.36;67.87
67131;HTU21D;54051;53.464;49.532;2022-10-23T04:48:57;4.24;68.39
67131;HTU21D;54051;53.464;49.532;2022-10-23T04:51:23;4.23;68.18
67131;HTU21D;54051;53.464;49.532;2022-10-23T04:53:49;4.15;68.40
67131;HTU21D;54051;53.464;49.532;2022-10-23T04:56:15;4.12;68.95
67131;HTU21D;54051;53.464;49.532;2022-10-23T04:58:41;4.05;69.17
67131;HTU21D;54051;53.464;49.532;2022-10-23T05:01:08;4.04;68.90
67131;HTU21D;54051;53.464;49.532;2022-10-23T05:03:38;4.02;68.69
67131;HTU21D;54051;53.464;49.532;2022-10-23T05:06:04;4.03;69.73
67131;HTU21D;54051;53.464;49.532;2022-10-23T05:08:31;4.07;69.68
67131;HTU21D;54051;53.464;49.532;2022-10-23T05:10:57;4.18;70.33
67131;HTU21D;54051;53.464;49.532;2022-10-23T05:13:23;4.19;70.18
67131;HTU21D;54051;53.464;49.532;2022-10-23T05:15:50;4.21;71.31
67131;HTU21D;54051;53.464;49.532;2022-10-23T05:18:26;4.24;70.97
67131;HTU21D;54051;53.464;49.532;2022-10-23T05:20:58;4.23;69.23
67131;HTU21D;54051;53.464;49.532;2022-10-23T05:23:25;4.22;72.25
67131;HTU21D;54051;53.464;49.532;2022-10-23T05:25:52;4.24;70.63
67131;HTU21D;54051;53.464;49.532;2022-10-23T05:28:18;4.24;71.10
67131;HTU21D;54051;53.464;49.532;2022-10-23T05:30:44;4.23;70.47
67131;HTU21D;54051;53.464;49.532;2022-10-23T05:33:11;4.26;70.36
67131;HTU21D;54051;53.464;49.532;2022-10-23T05:35:37;4.30;72.62
67131;HTU21D;54051;53.464;49.532;2022-10-23T05:38:05;4.37;69.36
67131;HTU21D;54051;53.464;49.532;2022-10-23T05:40:31;4.39;71.15
67131;HTU21D;54051;53.464;49.532;2022-10-23T05:42:57;4.39;73.23
67131;HTU21D;54051;53.464;49.532;2022-10-23T05:45:23;4.42;70.48
67131;HTU21D;54051;53.464;49.532;2022-10-23T05:47:50;4.47;73.77
67131;HTU21D;54051;53.464;49.532;2022-10-23T05:50:16;4.38;70.74
67131;HTU21D;54051;53.464;49.532;2022-10-23T05:52:45;4.31;71.07
67131;HTU21D;54051;53.464;49.532;2022-10-23T05:55:12;4.35;69.74
67131;HTU21D;54051;53.464;49.532;2022-10-23T05:57:38;4.41;70.93
67131;HTU21D;54051;53.464;49.532;2022-10-23T06:00:04;4.37;70.29
67131;HTU21D;54051;53.464;49.532;2022-10-23T06:02:31;4.31;68.65
67131;HTU21D;54051;53.464;49.532;2022-10-23T06:04:57;4.30;74.06
67131;HTU21D;54051;53.464;49.532;2022-10-23T06:07:25;4.32;68.52
67131;HTU21D;54051;53.464;49.532;2022-10-23T06:09:51;4.27;71.93
67131;HTU21D;54051;53.464;49.532;2022-10-23T06:12:19;4.31;71.76
67131;HTU21D;54051;53.464;49.532;2022-10-23T06:14:45;4.35;68.76
67131;HTU21D;54051;53.464;49.532;2022-10-23T06:17:11;4.37;72.23
67131;HTU21D;54051;53.464;49.532;2022-10-23T06:19:37;4.45;72.44
67131;HTU21D;54051;53.464;49.532;2022-10-23T06:22:06;4.50;71.79
67131;HTU21D;54051;53.464;49.532;2022-10-23T06:24:32;4.58;70.15
67131;HTU21D;54051;53.464;49.532;2022-10-23T06:27:00;4.57;72.81
67131;HTU21D;54051;53.464;49.532;2022-10-23T06:29:30;4.51;69.80
67131;HTU21D;54051;53.464;49.532;2022-10-23T06:31:56;4.45;70.70
67131;HTU21D;54051;53.464;49.532;2022-10-23T06:34:22;4.46;69.89
67131;HTU21D;54051;53.464;49.532;2022-10-23T06:36:48;4.43;69.40
67131;HTU21D;54051;53.464;49.532;2022-10-23T06:39:14;4.43;72.85
67131;HTU21D;54051;53.464;49.532;2022-10-23T06:41:40;4.43;69.18
67131;HTU21D;54051;53.464;49.532;2022-10-23T06:44:07;4.37;73.06
67131;HTU21D;54051;53.464;49.532;2022-10-23T06:46:35;4.34;69.67
67131;HTU21D;54051;53.464;49.532;2022-10-23T06:49:01;4.34;71.87
67131;HTU21D;54051;53.464;49.532;2022-10-23T06:51:27;4.30;71.19
67131;HTU21D;54051;53.464;49.532;2022-10-23T06:53:55;4.34;70.71
67131;HTU21D;54051;53.464;49.532;2022-10-23T06:56:21;4.42;71.93
67131;HTU21D;54051;53.464;49.532;2022-10-23T06:58:47;4.42;69.63
67131;HTU21D;54051;53.464;49.532;2022-10-23T07:01:14;4.42;69.04
67131;HTU21D;54051;53.464;49.532;2022-10-23T07:03:41;4.44;69.16
67131;HTU21D;54051;53.464;49.532;2022-10-23T07:06:09;4.42;68.94
67131;HTU21D;54051;53.464;49.532;2022-10-23T07:08:42;4.50;71.68
67131;HTU21D;54051;53.464;49.532;2022-10-23T07:11:11;4.45;68.74
67131;HTU21D;54051;53.464;49.532;2022-10-23T07:13:38;4.43;68.65
67131;HTU21D;54051;53.464;49.532;2022-10-23T07:16:13;4.39;69.90
67131;HTU21D;54051;53.464;49.532;2022-10-23T07:18:39;4.42;68.67
67131;HTU21D;54051;53.464;49.532;2022-10-23T07:21:05;4.36;70.03
67131;HTU21D;54051;53.464;49.532;2022-10-23T07:23:31;4.34;69.58
67131;HTU21D;54051;53.464;49.532;2022-10-23T07:28:30;4.36;69.73
67131;HTU21D;54051;53.464;49.532;2022-10-23T07:30:59;4.35;70.16
67131;HTU21D;54051;53.464;49.532;2022-10-23T07:33:25;4.41;69.26
67131;HTU21D;54051;53.464;49.532;2022-10-23T07:35:51;4.43;69.49
67131;HTU21D;54051;53.464;49.532;2022-10-23T07:38:17;4.50;69.47
67131;HTU21D;54051;53.464;49.532;2022-10-23T07:40:44;4.48;68.62
67131;HTU21D;54051;53.464;49.532;2022-10-23T07:43:10;4.50;69.88
67131;HTU21D;54051;53.464;49.532;2022-10-23T07:45:36;4.50;69.61
67131;HTU21D;54051;53.464;49.532;2022-10-23T07:48:02;4.49;70.00
67131;HTU21D;54051;53.464;49.532;2022-10-23T07:50:28;4.48;70.25
67131;HTU21D;54051;53.464;49.532;2022-10-23T07:52:54;4.59;70.00
67131;HTU21D;54051;53.464;49.532;2022-10-23T07:55:21;4.64;70.39
67131;HTU21D;54051;53.464;49.532;2022-10-23T07:57:47;4.66;69.49
67131;HTU21D;54051;53.464;49.532;2022-10-23T08:00:13;4.75;69.10
67131;HTU21D;54051;53.464;49.532;2022-10-23T08:02:39;4.79;69.90
67131;HTU21D;54051;53.464;49.532;2022-10-23T08:05:06;4.89;68.02
67131;HTU21D;54051;53.464;49.532;2022-10-23T08:07:32;4.88;67.89
67131;HTU21D;54051;53.464;49.532;2022-10-23T08:09:58;4.86;67.94
67131;HTU21D;54051;53.464;49.532;2022-10-23T08:12:23;4.88;68.11
67131;HTU21D;54051;53.464;49.532;2022-10-23T08:14:49;4.92;70.68
67131;HTU21D;54051;53.464;49.532;2022-10-23T08:17:15;4.87;67.85
67131;HTU21D;54051;53.464;49.532;2022-10-23T08:19:41;4.80;68.37
67131;HTU21D;54051;53.464;49.532;2022-10-23T08:22:11;4.83;68.84
67131;HTU21D;54051;53.464;49.532;2022-10-23T08:24:37;4.97;68.70
67131;HTU21D;54051;53.464;49.532;2022-10-23T08:27:03;4.96;68.68
67131;HTU21D;54051;53.464;49.532;2022-10-23T08:29:29;4.87;68.11
67131;HTU21D;54051;53.464;49.532;2022-10-23T08:31:55;4.89;68.36
67131;HTU21D;54051;53.464;49.532;2022-10-23T08:34:22;4.87;68.69
67131;HTU21D;54051;53.464;49.532;2022-10-23T08:36:48;4.75;68.97
67131;HTU21D;54051;53.464;49.532;2022-10-23T08:39:15;4.72;69.91
67131;HTU21D;54051;53.464;49.532;2022-10-23T08:41:43;4.82;68.23
67131;HTU21D;54051;53.464;49.532;2022-10-23T08:46:48;4.98;67.36
67131;HTU21D;54051;53.464;49.532;2022-10-23T08:52:21;5.09;68.19
67131;HTU21D;54051;53.464;49.532;2022-10-23T08:57:40;4.98;67.91
67131;HTU21D;54051;53.464;49.532;2022-10-23T09:00:13;4.89;67.92
67131;HTU21D;54051;53.464;49.532;2022-10-23T09:02:49;4.89;68.24
67131;HTU21D;54051;53.464;49.532;2022-10-23T09:05:31;4.98;67.91
67131;HTU21D;54051;53.464;49.532;2022-10-23T09:08:00;5.08;68.26
67131;HTU21D;54051;53.464;49.532;2022-10-23T09:10:41;5.13;67.40
67131;HTU21D;54051;53.464;49.532;2022-10-23T09:18:41;5.06;67.93
67131;HTU21D;54051;53.464;49.532;2022-10-23T09:21:09;5.21;67.71
67131;HTU21D;54051;53.464;49.532;2022-10-23T09:23:35;5.27;67.06
67131;HTU21D;54051;53.464;49.532;2022-10-23T09:26:02;5.30;67.90
67131;HTU21D;54051;53.464;49.532;2022-10-23T09:28:38;5.31;67.43
67131;HTU21D;54051;53.464;49.532;2022-10-23T09:31:09;5.25;67.43
67131;HTU21D;54051;53.464;49.532;2022-10-23T09:33:37;5.15;67.99
67131;HTU21D;54051;53.464;49.532;2022-10-23T09:38:46;5.07;68.68
67131;HTU21D;54051;53.464;49.532;2022-10-23T09:41:15;5.02;68.65
67131;HTU21D;54051;53.464;49.532;2022-10-23T09:43:41;5.02;69.17
67131;HTU21D;54051;53.464;49.532;2022-10-23T09:46:08;5.04;68.78
67131;HTU21D;54051;53.464;49.532;2022-10-23T09:48:35;4.93;69.30
67131;HTU21D;54051;53.464;49.532;2022-10-23T09:51:16;4.90;69.59
67131;HTU21D;54051;53.464;49.532;2022-10-23T09:54:00;4.91;69.75
67131;HTU21D;54051;53.464;49.532;2022-10-23T09:56:30;4.83;70.04
67131;HTU21D;54051;53.464;49.532;2022-10-23T10:02:15;4.89;71.10
67131;HTU21D;54051;53.464;49.532;2022-10-23T10:04:44;4.84;70.48
67131;HTU21D;54051;53.464;49.532;2022-10-23T10:07:29;4.86;72.13
67131;HTU21D;54051;53.464;49.532;2022-10-23T10:09:56;4.84;71.16
67131;HTU21D;54051;53.464;49.532;2022-10-23T10:15:19;4.77;70.23
67131;HTU21D;54051;53.464;49.532;2022-10-23T10:18:04;4.80;71.63
67131;HTU21D;54051;53.464;49.532;2022-10-23T10:29:16;4.83;72.48
67131;HTU21D;54051;53.464;49.532;2022-10-23T10:35:03;4.80;72.09
67131;HTU21D;54051;53.464;49.532;2022-10-23T10:40:30;4.84;72.56
67131;HTU21D;54051;53.464;49.532;2022-10-23T10:48:30;4.78;72.29
67131;HTU21D;54051;53.464;49.532;2022-10-23T10:51:11;4.76;73.58
67131;HTU21D;54051;53.464;49.532;2022-10-23T10:53:46;4.79;72.77
67131;HTU21D;54051;53.464;49.532;2022-10-23T10:56:16;4.83;72.83
67131;HTU21D;54051;53.464;49.532;2022-10-23T10:58:57;4.79;73.04
67131;HTU21D;54051;53.464;49.532;2022-10-23T11:01:32;4.71;73.34
67131;HTU21D;54051;53.464;49.532;2022-10-23T11:06:53;4.65;74.98
67131;HTU21D;54051;53.464;49.532;2022-10-23T11:09:26;4.75;74.43
67131;HTU21D;54051;53.464;49.532;2022-10-23T11:11:53;4.78;75.83
67131;HTU21D;54051;53.464;49.532;2022-10-23T11:14:30;4.81;74.06
67131;HTU21D;54051;53.464;49.532;2022-10-23T11:17:30;4.78;73.38
67131;HTU21D;54051;53.464;49.532;2022-10-23T11:20:28;4.69;73.93
67131;HTU21D;54051;53.464;49.532;2022-10-23T11:37:16;4.83;73.77
67131;HTU21D;54051;53.464;49.532;2022-10-23T11:40:00;4.88;74.49
67131;HTU21D;54051;53.464;49.532;2022-10-23T11:45:25;4.76;74.35
67131;HTU21D;54051;53.464;49.532;2022-10-23T11:47:59;4.73;74.26
67131;HTU21D;54051;53.464;49.532;2022-10-23T11:50:49;4.74;73.27
67131;HTU21D;54051;53.464;49.532;2022-10-23T11:53:38;4.76;74.52
67131;HTU21D;54051;53.464;49.532;2022-10-23T11:56:23;4.78;74.55
67131;HTU21D;54051;53.464;49.532;2022-10-23T12:04:46;4.75;74.43
67131;HTU21D;54051;53.464;49.532;2022-10-23T12:07:22;4.72;76.92
67131;HTU21D;54051;53.464;49.532;2022-10-23T12:09:55;4.80;75.95
67131;HTU21D;54051;53.464;49.532;2022-10-23T12:14:53;4.73;74.15
67131;HTU21D;54051;53.464;49.532;2022-10-23T12:22:19;4.68;75.40
67131;HTU21D;54051;53.464;49.532;2022-10-23T12:25:04;4.71;75.29
67131;HTU21D;54051;53.464;49.532;2022-10-23T12:27:38;4.78;75.46
67131;HTU21D;54051;53.464;49.532;2022-10-23T12:30:23;4.75;77.16
67131;HTU21D;54051;53.464;49.532;2022-10-23T12:41:24;4.73;75.07
67131;HTU21D;54051;53.464;49.532;2022-10-23T12:43:59;4.74;77.29
67131;HTU21D;54051;53.464;49.532;2022-10-23T12:46:33;4.74;76.28
67131;HTU21D;54051;53.464;49.532;2022-10-23T12:49:01;4.72;74.99
67131;HTU21D;54051;53.464;49.532;2022-10-23T12:51:33;4.71;76.16
67131;HTU21D;54051;53.464;49.532;2022-10-23T12:54:01;4.64;76.09
67131;HTU21D;54051;53.464;49.532;2022-10-23T12:56:33;4.66;76.60
67131;HTU21D;54051;53.464;49.532;2022-10-23T12:59:00;4.65;76.85
67131;HTU21D;54051;53.464;49.532;2022-10-23T13:01:32;4.68;76.79
67131;HTU21D;54051;53.464;49.532;2022-10-23T13:04:15;4.76;77.21
67131;HTU21D;54051;53.464;49.532;2022-10-23T13:06:43;4.76;76.57
67131;HTU21D;54051;53.464;49.532;2022-10-23T13:09:38;4.72;77.79
67131;HTU21D;54051;53.464;49.532;2022-10-23T13:12:06;4.74;76.98
67131;HTU21D;54051;53.464;49.532;2022-10-23T13:14:35;4.72;76.86
67131;HTU21D;54051;53.464;49.532;2022-10-23T13:17:04;4.68;77.14
67131;HTU21D;54051;53.464;49.532;2022-10-23T13:19:34;4.72;77.11
67131;HTU21D;54051;53.464;49.532;2022-10-23T13:22:03;4.72;76.57
67131;HTU21D;54051;53.464;49.532;2022-10-23T13:24:30;4.71;78.50
67131;HTU21D;54051;53.464;49.532;2022-10-23T13:26:57;4.75;77.40
67131;HTU21D;54051;53.464;49.532;2022-10-23T13:29:26;4.77;77.95
67131;HTU21D;54051;53.464;49.532;2022-10-23T13:31:53;4.80;78.38
67131;HTU21D;54051;53.464;49.532;2022-10-23T13:39:25;4.78;77.52
67131;HTU21D;54051;53.464;49.532;2022-10-23T13:41:51;4.76;77.51
67131;HTU21D;54051;53.464;49.532;2022-10-23T13:44:21;4.73;78.70
67131;HTU21D;54051;53.464;49.532;2022-10-23T13:46:47;4.77;78.69
67131;HTU21D;54051;53.464;49.532;2022-10-23T13:49:14;4.78;78.64
67131;HTU21D;54051;53.464;49.532;2022-10-23T13:51:52;4.79;78.28
67131;HTU21D;54051;53.464;49.532;2022-10-23T13:54:23;4.79;78.20
67131;HTU21D;54051;53.464;49.532;2022-10-23T13:56:50;4.80;78.27
67131;HTU21D;54051;53.464;49.532;2022-10-23T13:59:17;4.79;78.20
67131;HTU21D;54051;53.464;49.532;2022-10-23T14:01:46;4.83;78.56
67131;HTU21D;54051;53.464;49.532;2022-10-23T14:04:12;4.83;78.32
67131;HTU21D;54051;53.464;49.532;2022-10-23T14:06:39;4.79;78.08
67131;HTU21D;54051;53.464;49.532;2022-10-23T14:09:16;4.82;78.69
67131;HTU21D;54051;53.464;49.532;2022-10-23T14:11:43;4.78;79.42
67131;HTU21D;54051;53.464;49.532;2022-10-23T14:14:09;4.83;78.63
67131;HTU21D;54051;53.464;49.532;2022-10-23T14:16:35;4.83;78.56
67131;HTU21D;54051;53.464;49.532;2022-10-23T14:19:02;4.83;78.49
67131;HTU21D;54051;53.464;49.532;2022-10-23T14:21:28;4.77;78.68
67131;HTU21D;54051;53.464;49.532;2022-10-23T14:23:54;4.81;79.28
67131;HTU21D;54051;53.464;49.532;2022-10-23T14:26:23;4.84;78.59
67131;HTU21D;54051;53.464;49.532;2022-10-23T14:28:54;4.81;77.94
67131;HTU21D;54051;53.464;49.532;2022-10-23T14:31:20;4.84;78.70
67131;HTU21D;54051;53.464;49.532;2022-10-23T14:33:54;4.81;79.21
67131;HTU21D;54051;53.464;49.532;2022-10-23T14:36:21;4.80;78.93
67131;HTU21D;54051;53.464;49.532;2022-10-23T14:38:47;4.83;78.87
67131;HTU21D;54051;53.464;49.532;2022-10-23T14:41:15;4.79;78.68
67131;HTU21D;54051;53.464;49.532;2022-10-23T14:43:41;4.78;78.66
67131;HTU21D;54051;53.464;49.532;2022-10-23T14:46:19;4.82;79.85
67131;HTU21D;54051;53.464;49.532;2022-10-23T14:48:46;4.82;78.74
67131;HTU21D;54051;53.464;49.532;2022-10-23T14:51:30;4.80;79.24
67131;HTU21D;54051;53.464;49.532;2022-10-23T14:54:01;4.82;80.78
67131;HTU21D;54051;53.464;49.532;2022-10-23T14:56:29;4.81;78.92
67131;HTU21D;54051;53.464;49.532;2022-10-23T14:58:55;4.77;78.94
67131;HTU21D;54051;53.464;49.532;2022-10-23T15:01:35;4.74;80.37
67131;HTU21D;54051;53.464;49.532;2022-10-23T15:04:02;4.76;78.20
67131;HTU21D;54051;53.464;49.532;2022-10-23T15:06:32;4.76;79.52
67131;HTU21D;54051;53.464;49.532;2022-10-23T15:08:58;4.80;80.28
67131;HTU21D;54051;53.464;49.532;2022-10-23T15:11:25;4.87;78.83
67131;HTU21D;54051;53.464;49.532;2022-10-23T15:13:52;4.88;79.43
67131;HTU21D;54051;53.464;49.532;2022-10-23T15:16:19;4.90;78.34
67131;HTU21D;54051;53.464;49.532;2022-10-23T15:18:46;4.87;79.91
67131;HTU21D;54051;53.464;49.532;2022-10-23T15:21:13;4.80;79.15
67131;HTU21D;54051;53.464;49.532;2022-10-23T15:23:42;4.77;79.30
67131;HTU21D;54051;53.464;49.532;2022-10-23T15:26:12;4.77;79.65
67131;HTU21D;54051;53.464;49.532;2022-10-23T15:28:38;4.79;79.83
67131;HTU21D;54051;53.464;49.532;2022-10-23T15:31:05;4.81;80.06
67131;HTU21D;54051;53.464;49.532;2022-10-23T15:33:31;4.83;79.08
67131;HTU21D;54051;53.464;49.532;2022-10-23T15:35:57;4.81;79.00
67131;HTU21D;54051;53.464;49.532;2022-10-23T15:38:23;4.78;79.01
67131;HTU21D;54051;53.464;49.532;2022-10-23T15:40:49;4.78;80.76
67131;HTU21D;54051;53.464;49.532;2022-10-23T15:43:16;4.77;79.43
67131;HTU21D;54051;53.464;49.532;2022-10-23T15:45:42;4.76;80.14
67131;HTU21D;54051;53.464;49.532;2022-10-23T15:48:08;4.82;80.17
67131;HTU21D;54051;53.464;49.532;2022-10-23T15:50:35;4.82;79.78
67131;HTU21D;54051;53.464;49.532;2022-10-23T15:53:01;4.83;81.07
67131;HTU21D;54051;53.464;49.532;2022-10-23T15:55:27;4.83;80.49
67131;HTU21D;54051;53.464;49.532;2022-10-23T15:57:54;4.86;80.22
67131;HTU21D;54051;53.464;49.532;2022-10-23T16:00:20;4.87;80.20
67131;HTU21D;54051;53.464;49.532;2022-10-23T16:02:46;4.86;79.36
67131;HTU21D;54051;53.464;49.532;2022-10-23T16:05:12;4.83;80.30
67131;HTU21D;54051;53.464;49.532;2022-10-23T16:07:38;4.89;80.78
67131;HTU21D;54051;53.464;49.532;2022-10-23T16:10:04;4.87;80.81
67131;HTU21D;54051;53.464;49.532;2022-10-23T16:12:30;4.90;79.30
67131;HTU21D;54051;53.464;49.532;2022-10-23T16:14:56;4.87;80.20
67131;HTU21D;54051;53.464;49.532;2022-10-23T16:17:22;4.86;80.65
67131;HTU21D;54051;53.464;49.532;2022-10-23T16:19:48;4.90;80.90
67131;HTU21D;54051;53.464;49.532;2022-10-23T16:22:14;4.89;80.22
67131;HTU21D;54051;53.464;49.532;2022-10-23T16:24:42;4.91;80.46
67131;HTU21D;54051;53.464;49.532;2022-10-23T16:27:08;4.90;80.72
67131;HTU21D;54051;53.464;49.532;2022-10-23T16:29:34;4.93;79.80
67131;HTU21D;54051;53.464;49.532;2022-10-23T16:32:00;4.93;80.04
67131;HTU21D;54051;53.464;49.532;2022-10-23T16:34:26;4.92;80.91
67131;HTU21D;54051;53.464;49.532;2022-10-23T16:36:52;4.94;80.98
67131;HTU21D;54051;53.464;49.532;2022-10-23T16:39:19;4.90;79.49
67131;HTU21D;54051;53.464;49.532;2022-10-23T16:41:45;4.91;79.95
67131;HTU21D;54051;53.464;49.532;2022-10-23T16:44:11;4.92;79.81
67131;HTU21D;54051;53.464;49.532;2022-10-23T16:46:37;4.96;79.59
67131;HTU21D;54051;53.464;49.532;2022-10-23T16:49:04;4.93;79.64
67131;HTU21D;54051;53.464;49.532;2022-10-23T16:51:32;4.92;79.43
67131;HTU21D;54051;53.464;49.532;2022-10-23T16:53:59;4.93;80.78
67131;HTU21D;54051;53.464;49.532;2022-10-23T16:56:27;4.91;79.83
67131;HTU21D;54051;53.464;49.532;2022-10-23T16:58:54;4.89;80.33
67131;HTU21D;54051;53.464;49.532;2022-10-23T17:01:23;4.84;80.52
67131;HTU21D;54051;53.464;49.532;2022-10-23T17:03:51;4.89;80.71
67131;HTU21D;54051;53.464;49.532;2022-10-23T17:06:18;4.92;80.80
67131;HTU21D;54051;53.464;49.532;2022-10-23T17:08:44;4.94;80.62
67131;HTU21D;54051;53.464;49.532;2022-10-23T17:11:19;4.97;80.49
67131;HTU21D;54051;53.464;49.532;2022-10-23T17:13:49;5.01;80.17
67131;HTU21D;54051;53.464;49.532;2022-10-23T17:16:17;5.06;80.07
67131;HTU21D;54051;53.464;49.532;2022-10-23T17:18:43;5.07;80.01
67131;HTU21D;54051;53.464;49.532;2022-10-23T17:21:11;5.07;79.80